createdAt,value
2022-12-13T00:00:20.340Z,7.35
2022-12-13T00:03:08.205Z,9.32
2022-12-13T00:05:54.710Z,6.93
2022-12-13T00:08:41.848Z,7.78
2022-12-13T00:11:28.608Z,6.53
2022-12-13T00:14:14.469Z,7.95
2022-12-13T00:17:00.256Z,9.35
2022-12-13T00:19:48.127Z,8.80
2022-12-13T00:22:33.729Z,7.45
2022-12-13T00:25:22.105Z,7.47
2022-12-13T00:28:08.737Z,7.72
2022-12-13T00:31:27.007Z,6.32
2022-12-13T00:34:07.990Z,7.10
2022-12-13T00:36:55.104Z,6.72
2022-12-13T00:39:41.143Z,7.05
2022-12-13T00:42:26.783Z,9.32
2022-12-13T00:45:12.379Z,8.20
2022-12-13T00:47:58.133Z,7.88
2022-12-13T00:50:43.761Z,6.57
2022-12-13T00:53:29.270Z,7.82
2022-12-13T00:56:36.792Z,6.90
2022-12-13T00:59:22.202Z,7.50
2022-12-13T01:02:07.882Z,5.25
2022-12-13T01:04:53.768Z,9.20
2022-12-13T01:07:44.430Z,7.55
2022-12-13T01:10:30.443Z,7.75
2022-12-13T01:13:15.969Z,5.88
2022-12-13T01:16:05.494Z,7.75
2022-12-13T01:18:51.420Z,6.45
2022-12-13T01:21:38.306Z,7.97
2022-12-13T01:24:26.193Z,7.75
2022-12-13T01:27:12.177Z,6.85
2022-12-13T01:29:57.535Z,6.35
2022-12-13T01:32:42.907Z,6.85
2022-12-13T01:35:28.369Z,7.00
2022-12-13T01:38:15.660Z,6.20
2022-12-13T01:41:02.552Z,5.88
2022-12-13T01:44:06.618Z,9.00
2022-12-13T01:46:54.082Z,11.80
2022-12-13T01:49:40.059Z,12.13
2022-12-13T01:52:28.439Z,7.18
2022-12-13T01:55:18.546Z,6.97
2022-12-13T01:58:05.994Z,6.72
2022-12-13T02:00:52.461Z,6.03
2022-12-13T02:03:38.129Z,8.32
2022-12-13T02:06:47.543Z,8.57
2022-12-13T02:09:36.099Z,8.98
2022-12-13T02:12:21.997Z,8.90
2022-12-13T02:15:18.929Z,9.75
2022-12-13T02:18:25.719Z,9.35
2022-12-13T02:21:42.930Z,9.50
2022-12-13T02:25:03.705Z,13.05
2022-12-13T02:28:43.104Z,9.07
2022-12-13T02:31:49.093Z,8.10
2022-12-13T02:34:57.821Z,10.10
2022-12-13T02:38:29.511Z,9.40
2022-12-13T02:41:51.353Z,10.27
2022-12-13T02:44:47.178Z,10.52
2022-12-13T02:47:37.597Z,9.70
2022-12-13T02:50:26.175Z,10.07
2022-12-13T02:53:15.306Z,12.00
2022-12-13T02:56:01.120Z,10.80
2022-12-13T02:58:54.471Z,13.38
2022-12-13T03:02:31.486Z,11.25
2022-12-13T03:06:13.894Z,12.48
2022-12-13T03:09:33.900Z,12.57
2022-12-13T03:12:50.446Z,12.50
2022-12-13T03:15:56.502Z,13.05
2022-12-13T03:18:43.453Z,15.13
2022-12-13T03:21:30.007Z,13.73
2022-12-13T03:24:21.825Z,12.55
2022-12-13T03:27:07.609Z,13.15
2022-12-13T03:29:53.142Z,13.57
2022-12-13T03:32:38.709Z,12.40
2022-12-13T03:35:25.107Z,13.45
2022-12-13T03:38:21.800Z,12.55
2022-12-13T03:41:17.751Z,10.02
2022-12-13T03:44:08.650Z,16.40
2022-12-13T03:46:54.253Z,11.57
2022-12-13T03:49:39.754Z,12.05
2022-12-13T03:52:25.447Z,11.48
2022-12-13T03:55:11.274Z,10.68
2022-12-13T03:57:57.116Z,10.57
2022-12-13T04:00:42.703Z,12.32
2022-12-13T04:03:28.863Z,10.52
2022-12-13T04:06:21.626Z,10.43
2022-12-13T04:09:08.509Z,13.57
2022-12-13T04:12:15.689Z,10.48
2022-12-13T04:15:01.361Z,10.32
2022-12-13T04:17:51.216Z,11.60
2022-12-13T04:20:37.114Z,14.43
2022-12-13T04:23:23.488Z,9.23
2022-12-13T04:26:09.429Z,9.57
2022-12-13T04:28:55.110Z,11.30
2022-12-13T04:31:40.864Z,10.07
2022-12-13T04:34:28.047Z,10.50
2022-12-13T04:37:16.670Z,9.43
2022-12-13T04:40:02.406Z,10.50
2022-12-13T04:42:47.999Z,13.13
2022-12-13T04:45:39.796Z,10.65
2022-12-13T04:48:30.682Z,9.70
2022-12-13T04:51:17.265Z,10.98
2022-12-13T04:54:23.484Z,10.35
2022-12-13T04:57:11.632Z,11.20
2022-12-13T04:59:57.601Z,10.85
2022-12-13T05:02:43.664Z,10.27
2022-12-13T05:05:29.326Z,9.77
2022-12-13T05:08:14.961Z,7.47
2022-12-13T05:11:00.863Z,9.13
2022-12-13T05:13:46.384Z,10.18
2022-12-13T05:16:31.793Z,9.80
2022-12-13T05:19:17.512Z,9.23
2022-12-13T05:22:02.987Z,9.50
2022-12-13T05:24:49.055Z,8.30
2022-12-13T05:27:34.506Z,10.48
2022-12-13T05:30:20.686Z,11.20
2022-12-13T05:33:06.122Z,10.40
2022-12-13T05:35:57.699Z,8.27
2022-12-13T05:38:46.043Z,8.60
2022-12-13T05:41:35.871Z,10.88
2022-12-13T05:44:21.492Z,10.95
2022-12-13T05:47:06.940Z,10.73
2022-12-13T05:49:52.474Z,13.90
2022-12-13T05:52:38.018Z,9.98
2022-12-13T05:55:23.887Z,10.32
2022-12-13T05:58:13.274Z,11.77
2022-12-13T06:01:12.994Z,12.35
2022-12-13T06:03:58.848Z,12.50
2022-12-13T06:06:44.913Z,15.18
2022-12-13T06:09:30.951Z,13.80
2022-12-13T06:12:31.422Z,15.45
2022-12-13T06:15:22.421Z,18.40
2022-12-13T06:18:08.641Z,15.82
2022-12-13T06:21:00.276Z,14.88
2022-12-13T06:23:46.242Z,12.82
2022-12-13T06:26:31.855Z,11.38
2022-12-13T06:29:24.226Z,11.05
2022-12-13T06:32:11.592Z,14.80
2022-12-13T06:34:57.748Z,11.40
2022-12-13T06:37:43.328Z,14.63
2022-12-13T06:40:33.841Z,12.30
2022-12-13T06:43:21.322Z,14.13
2022-12-13T06:46:07.181Z,13.50
2022-12-13T06:48:55.007Z,19.23
2022-12-13T06:51:40.548Z,17.05
2022-12-13T06:54:26.162Z,21.13
2022-12-13T06:57:12.938Z,17.65
2022-12-13T06:59:58.437Z,16.45
2022-12-13T07:02:43.922Z,20.05
2022-12-13T07:05:29.663Z,14.45
2022-12-13T07:08:22.141Z,12.40
2022-12-13T07:11:13.490Z,13.65
2022-12-13T07:14:00.117Z,14.25
2022-12-13T07:16:45.769Z,11.45
2022-12-13T07:19:35.330Z,13.15
2022-12-13T07:22:21.487Z,15.48
2022-12-13T07:25:07.775Z,15.18
2022-12-13T07:28:13.285Z,13.82
2022-12-13T07:31:02.414Z,14.95
2022-12-13T07:33:47.814Z,14.40
2022-12-13T07:36:33.307Z,19.35
2022-12-13T07:39:19.220Z,16.80
2022-12-13T07:42:04.750Z,14.25
2022-12-13T07:44:49.983Z,14.05
2022-12-13T07:47:35.491Z,18.10
2022-12-13T07:50:23.973Z,14.23
2022-12-13T07:53:11.681Z,13.07
2022-12-13T07:55:57.323Z,12.00
2022-12-13T07:58:44.088Z,13.50
2022-12-13T08:01:34.554Z,11.68
2022-12-13T08:04:20.486Z,12.13
2022-12-13T08:07:09.996Z,17.73
2022-12-13T08:09:55.776Z,16.17
2022-12-13T08:12:41.309Z,12.55
2022-12-13T08:15:26.801Z,15.40
2022-12-13T08:18:12.275Z,10.80
2022-12-13T08:21:23.917Z,14.60
2022-12-13T08:24:15.689Z,16.38
2022-12-13T08:27:03.283Z,12.30
2022-12-13T08:29:49.296Z,13.90
2022-12-13T08:32:34.684Z,18.98
2022-12-13T08:35:19.989Z,27.42
2022-12-13T08:38:05.575Z,14.90
2022-12-13T08:40:51.404Z,15.27
2022-12-13T08:43:37.792Z,15.02
2022-12-13T08:46:23.212Z,14.48
2022-12-13T08:49:08.618Z,17.33
2022-12-13T08:51:54.503Z,13.43
2022-12-13T08:54:39.800Z,15.73
2022-12-13T08:57:25.376Z,16.27
2022-12-13T09:00:19.900Z,15.30
2022-12-13T09:03:09.836Z,18.35
2022-12-13T09:06:10.538Z,17.45
2022-12-13T09:08:56.163Z,17.70
2022-12-13T09:11:42.109Z,14.27
2022-12-13T09:14:33.650Z,13.10
2022-12-13T09:20:29.766Z,14.35
2022-12-13T09:23:24.139Z,18.25
2022-12-13T09:26:16.434Z,14.65
2022-12-13T09:29:10.759Z,10.63
2022-12-13T09:31:57.936Z,12.55
2022-12-13T09:34:43.473Z,11.32
2022-12-13T09:37:32.175Z,13.93
2022-12-13T09:40:26.646Z,12.18
2022-12-13T09:43:32.031Z,17.05
2022-12-13T09:46:44.688Z,14.07
2022-12-13T09:49:36.998Z,17.33
2022-12-13T09:52:25.800Z,16.80
2022-12-13T09:55:30.264Z,11.27
2022-12-13T09:58:26.371Z,11.90
2022-12-13T10:01:12.528Z,13.52
2022-12-13T10:04:00.483Z,10.93
2022-12-13T10:06:46.190Z,10.60
2022-12-13T10:09:32.432Z,12.77
2022-12-13T10:12:18.161Z,13.95
2022-12-13T10:15:04.713Z,11.77
2022-12-13T10:17:55.241Z,10.75
2022-12-13T10:20:42.287Z,12.45
2022-12-13T10:23:42.810Z,21.20
2022-12-13T10:26:39.129Z,14.40
2022-12-13T10:29:24.561Z,18.63
2022-12-13T10:32:13.810Z,11.00
2022-12-13T10:34:59.281Z,13.23
2022-12-13T10:37:44.799Z,14.15
2022-12-13T10:40:48.827Z,10.00
2022-12-13T10:43:36.096Z,11.55
2022-12-13T10:46:24.827Z,12.40
2022-12-13T10:49:25.223Z,12.23
2022-12-13T10:52:33.674Z,12.43
2022-12-13T10:55:28.902Z,17.05
2022-12-13T10:58:19.938Z,11.93
2022-12-13T11:01:21.509Z,10.15
2022-12-13T11:04:34.699Z,12.18
2022-12-13T11:07:34.186Z,11.95
2022-12-13T11:10:29.747Z,13.02
2022-12-13T11:13:44.799Z,14.23
2022-12-13T11:16:40.619Z,16.15
2022-12-13T11:19:48.025Z,14.02
2022-12-13T11:22:38.413Z,14.38
2022-12-13T11:25:30.692Z,13.82
2022-12-13T11:28:31.845Z,14.25
2022-12-13T11:32:13.123Z,15.40
2022-12-13T11:36:00.680Z,11.68
2022-12-13T11:39:13.205Z,15.43
2022-12-13T11:42:27.892Z,15.25
2022-12-13T11:45:31.820Z,12.20
2022-12-13T11:48:20.333Z,14.13
2022-12-13T11:51:11.239Z,12.10
2022-12-13T11:54:09.272Z,10.40
2022-12-13T11:57:00.086Z,15.52
2022-12-13T12:00:02.663Z,13.45
2022-12-13T12:02:56.847Z,10.25
2022-12-13T12:05:55.760Z,15.07
2022-12-13T12:09:01.899Z,19.40
2022-12-13T12:12:22.004Z,12.10
2022-12-13T12:15:26.481Z,17.10
2022-12-13T12:18:17.197Z,14.00
2022-12-13T12:21:05.039Z,16.05
2022-12-13T12:24:26.956Z,12.02
2022-12-13T12:27:26.119Z,14.20
2022-12-13T12:30:23.026Z,12.50
2022-12-13T12:33:49.766Z,12.55
2022-12-13T12:37:02.889Z,11.32
2022-12-13T12:40:22.608Z,14.70
2022-12-13T12:43:25.891Z,15.60
2022-12-13T12:46:52.371Z,15.20
2022-12-13T12:50:16.806Z,12.65
2022-12-13T12:53:40.415Z,9.98
2022-12-13T12:56:57.190Z,11.80
2022-12-13T13:00:24.298Z,13.32
2022-12-13T13:03:26.519Z,11.73
2022-12-13T13:06:40.669Z,12.55
2022-12-13T13:09:27.344Z,11.07
2022-12-13T13:12:28.907Z,14.02
2022-12-13T13:15:33.430Z,12.18
2022-12-13T13:18:51.920Z,13.30
2022-12-13T13:22:02.473Z,15.60
2022-12-13T13:25:26.067Z,12.38
2022-12-13T13:28:17.896Z,14.25
2022-12-13T13:31:09.275Z,12.77
2022-12-13T13:33:54.827Z,13.18
2022-12-13T13:36:41.115Z,12.73
2022-12-13T13:39:29.460Z,13.85
2022-12-13T13:42:15.061Z,19.20
2022-12-13T13:45:23.619Z,16.25
2022-12-13T13:49:09.656Z,15.13
2022-12-13T13:52:25.325Z,17.00
2022-12-13T13:55:45.571Z,18.70
2022-12-13T13:59:13.397Z,18.80
2022-12-13T14:02:41.839Z,23.83
2022-12-13T14:06:02.686Z,21.38
2022-12-13T14:09:23.579Z,24.50
2022-12-13T14:13:13.565Z,19.77
2022-12-13T14:16:06.455Z,17.08
2022-12-13T14:19:06.717Z,17.40
2022-12-13T14:22:10.160Z,19.10
2022-12-13T14:25:27.685Z,18.95
2022-12-13T14:28:13.564Z,17.13
2022-12-13T14:30:47.789Z,14.82
2022-12-13T14:33:26.600Z,15.18
2022-12-13T14:35:56.329Z,16.77
2022-12-13T14:38:27.037Z,18.25
2022-12-13T14:41:00.037Z,17.40
2022-12-13T14:43:33.130Z,17.13
2022-12-13T14:46:07.240Z,15.68
2022-12-13T14:48:53.774Z,18.20
2022-12-13T14:51:38.310Z,16.70
2022-12-13T14:54:25.925Z,18.10
2022-12-13T14:57:04.959Z,19.15
2022-12-13T14:59:33.596Z,22.83
2022-12-13T15:02:04.892Z,22.90
2022-12-13T15:04:36.054Z,24.73
2022-12-13T15:07:07.612Z,26.52
2022-12-13T15:09:44.567Z,21.08
2022-12-13T15:12:24.682Z,19.08
2022-12-13T15:15:03.053Z,26.58
2022-12-13T15:17:40.860Z,25.33
2022-12-13T15:20:32.050Z,27.65
2022-12-13T15:23:19.433Z,27.65
2022-12-13T15:25:59.140Z,26.83
2022-12-13T15:28:34.583Z,23.95
2022-12-13T15:31:04.583Z,27.45
2022-12-13T15:33:36.546Z,27.05
2022-12-13T15:36:23.629Z,25.77
2022-12-13T15:38:56.483Z,23.95
2022-12-13T15:41:33.899Z,21.85
2022-12-13T15:44:08.095Z,22.00
2022-12-13T15:46:38.235Z,20.98
2022-12-13T15:49:23.571Z,25.55
2022-12-13T15:51:57.474Z,22.25
2022-12-13T15:54:24.899Z,25.95
2022-12-13T15:57:15.820Z,26.25
2022-12-13T15:59:44.555Z,32.22
2022-12-13T16:02:23.519Z,35.25
2022-12-13T16:04:51.517Z,36.83
2022-12-13T16:07:40.297Z,40.47
2022-12-13T16:10:08.959Z,37.65
2022-12-13T16:12:47.879Z,38.22
2022-12-13T16:15:49.404Z,35.08
2022-12-13T16:18:32.124Z,35.10
2022-12-13T16:20:59.933Z,28.40
2022-12-13T16:23:27.688Z,25.92
2022-12-13T16:25:55.337Z,24.75
2022-12-13T16:28:25.920Z,24.45
2022-12-13T16:30:53.267Z,29.20
2022-12-13T16:33:30.529Z,23.48
2022-12-13T16:36:00.080Z,22.90
2022-12-13T16:38:30.165Z,26.85
2022-12-13T16:41:00.841Z,24.27
2022-12-13T16:43:52.835Z,21.75
2022-12-13T16:47:14.732Z,19.38
2022-12-13T16:49:21.167Z,21.98
2022-12-13T16:51:55.044Z,23.85
2022-12-13T16:54:26.326Z,24.42
2022-12-13T16:56:54.580Z,23.33
2022-12-13T16:59:27.055Z,24.08
2022-12-13T17:01:54.747Z,22.20
2022-12-13T17:04:24.653Z,25.35
2022-12-13T17:06:55.081Z,26.52
2022-12-13T17:09:24.344Z,25.92
2022-12-13T17:11:51.562Z,27.67
2022-12-13T17:14:20.826Z,28.85
2022-12-13T17:16:48.001Z,33.17
2022-12-13T17:19:15.804Z,30.73
2022-12-13T17:21:43.147Z,35.30
2022-12-13T17:24:10.282Z,32.60
2022-12-13T17:26:37.290Z,31.55
2022-12-13T17:29:04.740Z,36.03
2022-12-13T17:31:35.691Z,33.03
2022-12-13T17:34:04.519Z,28.77
2022-12-13T17:36:34.123Z,38.70
2022-12-13T17:39:03.973Z,37.30
2022-12-13T17:41:31.067Z,39.83
2022-12-13T17:44:01.291Z,41.22
2022-12-13T17:46:28.472Z,39.42
2022-12-13T17:48:55.487Z,35.63
2022-12-13T17:51:22.681Z,34.95
2022-12-13T17:53:49.685Z,34.10
2022-12-13T17:56:17.732Z,30.05
2022-12-13T17:58:45.039Z,28.70
2022-12-13T18:01:26.631Z,27.58
2022-12-13T18:03:57.809Z,25.27
2022-12-13T18:06:26.243Z,33.15
2022-12-13T18:08:53.603Z,32.70
2022-12-13T18:11:33.010Z,29.92
2022-12-13T18:14:02.246Z,30.52
2022-12-13T18:16:36.214Z,23.63
2022-12-13T18:19:12.293Z,25.33
2022-12-13T18:21:43.641Z,22.67
2022-12-13T18:24:12.355Z,28.40
2022-12-13T18:26:39.479Z,27.83
2022-12-13T18:29:06.718Z,27.70
2022-12-13T18:31:33.851Z,22.65
2022-12-13T18:34:00.992Z,31.10
2022-12-13T18:36:28.329Z,27.50
2022-12-13T18:38:55.642Z,27.90
2022-12-13T18:41:28.227Z,27.35
2022-12-13T18:44:08.172Z,26.88
2022-12-13T18:46:38.213Z,27.27
2022-12-13T18:49:06.746Z,25.23
2022-12-13T18:51:34.254Z,30.17
2022-12-13T18:54:01.378Z,28.73
2022-12-13T18:56:28.481Z,27.65
2022-12-13T18:58:59.535Z,31.98
2022-12-13T19:01:28.134Z,43.97
2022-12-13T19:03:55.417Z,32.80
2022-12-13T19:06:27.620Z,34.47
2022-12-13T19:11:26.346Z,38.90
2022-12-13T19:13:53.982Z,39.25
2022-12-13T19:16:26.166Z,40.45
2022-12-13T19:18:57.422Z,48.90
2022-12-13T19:21:24.546Z,44.87
2022-12-13T19:23:57.304Z,47.97
2022-12-13T19:26:25.423Z,51.60
2022-12-13T19:28:52.437Z,46.78
2022-12-13T19:31:25.564Z,51.92
2022-12-13T19:34:02.361Z,53.15
2022-12-13T19:36:32.186Z,55.42
2022-12-13T19:38:59.381Z,53.97
2022-12-13T19:41:26.635Z,54.22
2022-12-13T19:43:55.897Z,51.60
2022-12-13T19:46:23.040Z,54.58
2022-12-13T19:48:51.064Z,69.00
2022-12-13T19:51:18.478Z,82.72
2022-12-13T19:53:45.503Z,98.57
2022-12-13T19:56:17.814Z,101.50
2022-12-13T19:58:47.115Z,81.20
2022-12-13T20:01:17.453Z,85.43
2022-12-13T20:03:46.481Z,80.55
2022-12-13T20:06:18.458Z,76.35
2022-12-13T20:08:46.482Z,75.85
2022-12-13T20:11:21.202Z,71.85
2022-12-13T20:13:52.719Z,69.30
2022-12-13T20:16:24.451Z,63.05
2022-12-13T20:18:59.914Z,60.08
2022-12-13T20:21:28.710Z,62.90
2022-12-13T20:23:56.529Z,68.80
2022-12-13T20:26:29.666Z,63.80
2022-12-13T20:28:56.991Z,62.00
2022-12-13T20:31:31.154Z,61.58
2022-12-13T20:34:02.333Z,65.63
2022-12-13T20:36:32.907Z,64.60
2022-12-13T20:39:02.197Z,57.35
2022-12-13T20:41:34.610Z,61.42
2022-12-13T20:44:04.957Z,63.80
2022-12-13T20:46:32.670Z,59.08
2022-12-13T20:49:06.324Z,54.30
2022-12-13T20:51:34.937Z,58.90
2022-12-13T20:54:05.464Z,57.70
2022-12-13T20:56:35.921Z,68.10
2022-12-13T20:59:08.749Z,62.03
2022-12-13T21:01:41.010Z,55.97
2022-12-13T21:04:11.175Z,47.63
2022-12-13T21:06:42.869Z,46.90
2022-12-13T21:09:11.563Z,45.72
2022-12-13T21:11:44.089Z,50.47
2022-12-13T21:14:22.251Z,49.33
2022-12-13T21:17:00.235Z,53.15
2022-12-13T21:19:39.450Z,58.50
2022-12-13T21:22:07.213Z,53.35
2022-12-13T21:24:34.395Z,53.38
2022-12-13T21:27:01.542Z,48.72
2022-12-13T21:29:28.685Z,57.45
2022-12-13T21:31:56.185Z,50.85
2022-12-13T21:34:23.711Z,61.80
2022-12-13T21:36:52.755Z,49.88
2022-12-13T21:39:23.348Z,54.85
2022-12-13T21:41:51.594Z,64.40
2022-12-13T21:44:19.538Z,78.68
2022-12-13T21:47:22.300Z,103.70
2022-12-13T21:49:35.538Z,119.38
2022-12-13T21:52:02.681Z,128.50
2022-12-13T21:54:29.720Z,139.88
2022-12-13T21:57:15.165Z,144.13
2022-12-13T21:59:42.225Z,115.50
2022-12-13T22:02:18.702Z,105.93
2022-12-13T22:04:51.016Z,109.82
2022-12-13T22:07:32.544Z,111.85
2022-12-13T22:10:01.573Z,111.57
2022-12-13T22:12:38.488Z,104.90
2022-12-13T22:15:15.990Z,88.85
2022-12-13T22:17:43.436Z,92.72
2022-12-13T22:20:14.286Z,77.25
2022-12-13T22:22:44.237Z,88.25
2022-12-13T22:25:11.500Z,83.22
2022-12-13T22:27:38.687Z,82.50
2022-12-13T22:30:06.804Z,65.68
2022-12-13T22:32:34.036Z,70.70
2022-12-13T22:35:04.850Z,64.53
2022-12-13T22:37:33.331Z,71.10
2022-12-13T22:40:08.378Z,66.57
2022-12-13T22:42:35.796Z,61.20
2022-12-13T22:45:03.019Z,53.75
2022-12-13T22:47:32.698Z,64.93
2022-12-13T22:49:59.802Z,70.55
2022-12-13T22:52:32.008Z,66.50
2022-12-13T22:55:00.881Z,60.28
2022-12-13T22:57:27.957Z,69.63
2022-12-13T22:59:55.053Z,69.45
2022-12-13T23:02:24.595Z,70.20
2022-12-13T23:04:51.785Z,73.93
2022-12-13T23:07:18.892Z,78.22
2022-12-13T23:09:46.178Z,79.07
2022-12-13T23:12:31.618Z,80.75
2022-12-13T23:14:58.749Z,81.82
2022-12-13T23:17:25.870Z,76.07
2022-12-13T23:19:53.636Z,81.25
2022-12-13T23:22:25.664Z,85.70
2022-12-13T23:24:56.282Z,81.38
2022-12-13T23:27:24.452Z,77.75
2022-12-13T23:29:51.640Z,77.32
2022-12-13T23:32:19.006Z,75.70
2022-12-13T23:34:48.571Z,74.65
2022-12-13T23:37:15.807Z,69.88
2022-12-13T23:39:42.985Z,76.70
2022-12-13T23:42:11.198Z,76.82
2022-12-13T23:44:38.315Z,69.43
2022-12-13T23:47:05.396Z,68.13
2022-12-13T23:49:34.664Z,70.75
2022-12-13T23:52:01.654Z,76.15
2022-12-13T23:54:31.108Z,71.00
2022-12-13T23:56:58.286Z,73.95
2022-12-13T23:59:27.257Z,73.85
